Redesdale, United Kingdom
Current Conditions -  °F | °C
As of 10:50 AM on Tuesday 21 Oct 2014 (Local Time) from EGOM Reporting Station
Broken Clouds Broken Clouds  
Wind Chill: 38°   Ceiling: 2400
Heat Index: 46°   Visibility: 6mi
Dew Point: 41°   Wind: 28mph
Humidity: 81%   Direction: 270°W
Pressure: 29.35"   Gusts: NA
Location:  55.28°N, 2.28°W
Report Text: EGOM 210950Z 27024KT 9999 BKN024 BKN036 08/05 Q0994 WHT
Loading
Personal Weather Stations






























Interactive Weather Map
Tropical Storm Tracking
New forecast layout! Learn more

10-Day Weather Forecast

Advertisements
Track Severe Weather on mobile